Time;durP1;ratioP1;P1;durP2;ratioP2;P2;SDS_P1;SDS_P2;PMS_P1;PMS_P2;Temp;Humidity;BMP_temperature;BMP_pressure;BME280_temperature;BME280_humidity;BME280_pressure;Samples;Min_cycle;Max_cycle;Signal;HPM_P1;HPM_P2
2021/03/09 00:00:04;;;;;;;91.15;33.80;;;4.00;91.40;;;;;;5007481;28;20379;-79
2021/03/09 00:02:30;;;;;;;99.63;36.38;;;4.00;91.50;;;;;;4994788;28;20030;-79
2021/03/09 00:04:55;;;;;;;91.95;33.90;;;4.00;91.60;;;;;;5012877;28;20100;-79
2021/03/09 00:07:21;;;;;;;92.10;35.78;;;4.10;91.50;;;;;;4999341;28;20024;-78
2021/03/09 00:09:46;;;;;;;90.13;33.83;;;4.10;91.60;;;;;;5000913;28;20029;-79
2021/03/09 00:12:12;;;;;;;94.15;34.42;;;4.10;91.50;;;;;;4987293;28;20761;-79
2021/03/09 00:14:37;;;;;;;97.13;37.50;;;4.10;91.70;;;;;;4988071;28;20419;-79
2021/03/09 00:17:03;;;;;;;99.47;34.50;;;4.10;91.60;;;;;;4974737;28;20088;-79
2021/03/09 00:19:28;;;;;;;95.20;34.63;;;4.10;91.60;;;;;;4995245;28;20149;-79
2021/03/09 00:21:54;;;;;;;87.70;34.15;;;4.00;91.70;;;;;;4981913;28;20519;-80
2021/03/09 00:24:19;;;;;;;107.80;39.65;;;4.00;91.60;;;;;;4980722;28;20038;-80
2021/03/09 00:26:45;;;;;;;101.32;38.92;;;4.00;91.70;;;;;;4983231;28;20041;-79
2021/03/09 00:29:10;;;;;;;88.28;33.20;;;4.00;92.10;;;;;;4991008;28;20067;-80
2021/03/09 00:31:36;;;;;;;90.85;34.72;;;3.90;91.60;;;;;;4984152;28;20041;-79
2021/03/09 00:34:02;;;;;;;81.63;32.63;;;3.90;91.80;;;;;;5005418;28;20120;-79
2021/03/09 00:36:27;;;;;;;80.75;31.10;;;4.00;91.90;;;;;;4990162;28;20505;-79
2021/03/09 00:38:53;;;;;;;102.97;37.72;;;4.10;91.90;;;;;;4997125;28;20509;-80
2021/03/09 00:41:18;;;;;;;94.43;33.55;;;4.20;91.90;;;;;;4982425;28;20033;-80
2021/03/09 00:43:44;;;;;;;86.60;32.03;;;4.20;92.00;;;;;;4998499;28;20033;-81
2021/03/09 00:46:09;;;;;;;78.35;29.88;;;4.20;91.70;;;;;;4973936;28;20064;-81
2021/03/09 00:48:39;;;;;;;80.40;29.90;;;4.30;92.10;;;;;;4984452;28;20034;-81
2021/03/09 00:51:04;;;;;;;75.30;28.92;;;4.30;91.80;;;;;;5010015;28;20045;-81
2021/03/09 00:53:30;;;;;;;80.47;32.47;;;4.30;91.70;;;;;;4990899;28;20038;-80
2021/03/09 00:55:58;;;;;;;74.57;28.88;;;4.30;91.90;;;;;;4982068;28;20474;-81
2021/03/09 00:58:24;;;;;;;72.90;29.35;;;4.30;92.00;;;;;;4978946;28;20038;-81
2021/03/09 01:00:49;;;;;;;68.78;27.38;;;4.30;92.00;;;;;;4995384;28;20030;-82
2021/03/09 01:03:15;;;;;;;90.22;32.40;;;4.40;92.10;;;;;;4991792;28;20414;-81
2021/03/09 01:05:41;;;;;;;91.18;33.55;;;4.30;92.00;;;;;;4996012;28;20037;-82
2021/03/09 01:08:06;;;;;;;84.22;27.92;;;4.20;92.60;;;;;;4998722;28;20056;-82
2021/03/09 01:10:32;;;;;;;83.68;32.67;;;4.30;92.30;;;;;;5011053;28;20042;-81
2021/03/09 01:12:57;;;;;;;75.88;29.60;;;4.30;92.30;;;;;;5007954;28;20034;-82
2021/03/09 01:15:23;;;;;;;69.05;27.45;;;4.20;92.40;;;;;;4981959;28;20084;-80
2021/03/09 01:17:48;;;;;;;79.95;27.50;;;4.20;92.40;;;;;;4999419;28;20041;-81
2021/03/09 01:20:14;;;;;;;82.60;34.13;;;4.20;92.20;;;;;;4977785;28;20025;-83
2021/03/09 01:22:40;;;;;;;90.40;36.17;;;4.20;92.40;;;;;;4993184;28;20422;-81
2021/03/09 01:25:06;;;;;;;85.57;29.85;;;4.20;92.60;;;;;;4971838;28;20060;-82
2021/03/09 01:27:32;;;;;;;56.08;23.67;;;4.20;92.20;;;;;;4994941;28;20273;-82
2021/03/09 01:29:57;;;;;;;70.45;29.67;;;4.20;92.40;;;;;;4982545;28;20034;-82
2021/03/09 01:32:23;;;;;;;57.65;21.80;;;4.20;92.30;;;;;;4998417;28;20465;-81
2021/03/09 01:34:49;;;;;;;81.00;32.78;;;4.20;92.30;;;;;;4993547;28;20087;-81
2021/03/09 01:37:14;;;;;;;80.80;32.33;;;4.20;92.80;;;;;;4995609;28;20529;-82
2021/03/09 01:39:40;;;;;;;73.55;30.08;;;4.20;92.40;;;;;;4997453;28;20056;-82
2021/03/09 01:42:06;;;;;;;69.45;30.15;;;4.20;92.30;;;;;;4991728;28;20048;-81
2021/03/09 01:44:31;;;;;;;65.25;25.70;;;4.20;92.50;;;;;;4984163;28;20116;-81
2021/03/09 01:47:01;;;;;;;57.80;22.48;;;4.20;92.60;;;;;;4999687;28;20793;-82
2021/03/09 01:49:32;;;;;;;50.33;20.15;;;4.20;92.40;;;;;;4984434;28;20493;-81
2021/03/09 01:51:58;;;;;;;75.20;27.30;;;4.10;92.30;;;;;;4986205;28;20133;-81
2021/03/09 01:54:23;;;;;;;81.25;32.60;;;4.10;92.20;;;;;;4989517;28;20124;-81
2021/03/09 01:56:49;;;;;;;71.07;29.05;;;4.10;92.30;;;;;;4983022;28;20029;-82
2021/03/09 01:59:16;;;;;;;77.28;30.17;;;4.10;92.50;;;;;;4983475;28;20044;-81
2021/03/09 02:01:42;;;;;;;84.53;35.65;;;4.10;92.70;;;;;;4992289;28;20061;-82
2021/03/09 02:04:07;;;;;;;77.20;30.58;;;4.10;92.50;;;;;;4977558;28;20057;-82
2021/03/09 02:06:34;;;;;;;77.35;32.78;;;4.00;92.50;;;;;;4988031;28;20452;-82
2021/03/09 02:09:00;;;;;;;70.53;29.38;;;4.10;92.80;;;;;;4971842;28;20026;-81
2021/03/09 02:11:42;;;;;;;77.75;32.80;;;4.00;92.50;;;;;;4978564;28;20482;-80
2021/03/09 02:14:27;;;;;;;77.28;32.03;;;4.00;92.90;;;;;;5015787;28;20060;-81
2021/03/09 02:17:08;;;;;;;66.93;24.65;;;4.10;92.80;;;;;;5008838;28;20037;-81
2021/03/09 02:19:45;;;;;;;64.15;26.52;;;4.10;93.00;;;;;;4992674;28;20037;-81
2021/03/09 02:22:23;;;;;;;68.30;28.35;;;4.20;93.00;;;;;;5012224;28;20594;-81
2021/03/09 02:25:30;;;;;;;61.75;24.67;;;4.10;93.10;;;;;;4987752;28;20034;-81
2021/03/09 02:28:20;;;;;;;75.70;28.70;;;4.20;93.20;;;;;;4985488;28;20382;-81
2021/03/09 02:30:45;;;;;;;40.63;15.98;;;4.20;93.00;;;;;;5005858;28;20022;-82
2021/03/09 02:33:16;;;;;;;58.78;24.00;;;4.20;93.20;;;;;;4973709;28;20030;-82
2021/03/09 02:36:03;;;;;;;68.40;28.67;;;4.20;93.40;;;;;;4983931;28;20496;-81
2021/03/09 02:38:34;;;;;;;46.53;18.50;;;4.20;93.40;;;;;;4989024;28;20018;-82
2021/03/09 02:41:00;;;;;;;65.05;25.23;;;4.10;93.60;;;;;;4986446;28;20045;-81
2021/03/09 02:43:26;;;;;;;63.78;25.95;;;4.10;93.60;;;;;;4975126;28;20064;-82
2021/03/09 02:45:52;;;;;;;67.00;26.40;;;4.10;93.40;;;;;;4997699;28;20041;-82
2021/03/09 02:48:21;;;;;;;54.97;24.45;;;4.10;93.50;;;;;;4983845;28;20041;-81
2021/03/09 02:50:48;;;;;;;62.33;25.52;;;4.10;93.60;;;;;;4985542;28;20124;-81
2021/03/09 02:53:13;;;;;;;42.55;17.80;;;4.10;93.50;;;;;;4974161;28;20482;-81
2021/03/09 02:55:39;;;;;;;60.83;24.77;;;4.10;93.80;;;;;;5000818;28;20080;-81
2021/03/09 02:58:08;;;;;;;66.85;26.58;;;4.00;93.80;;;;;;4991295;28;20036;-80
2021/03/09 03:00:35;;;;;;;66.85;25.63;;;4.10;93.80;;;;;;4997175;28;20034;-81
2021/03/09 03:03:02;;;;;;;65.90;25.50;;;4.00;93.80;;;;;;4990126;28;20030;-81
2021/03/09 03:05:27;;;;;;;63.15;25.27;;;4.10;93.70;;;;;;4996038;28;20089;-81
2021/03/09 03:07:53;;;;;;;62.38;24.88;;;4.00;93.90;;;;;;4985641;28;20034;-81
2021/03/09 03:10:19;;;;;;;60.00;27.15;;;4.00;93.80;;;;;;4996584;28;20030;-82
2021/03/09 03:12:45;;;;;;;56.70;25.38;;;4.00;93.80;;;;;;4997926;28;20031;-82
2021/03/09 03:15:11;;;;;;;57.65;26.52;;;4.00;93.80;;;;;;4978110;28;20041;-81
2021/03/09 03:17:37;;;;;;;61.75;25.42;;;4.00;93.70;;;;;;5003827;28;20032;-82
2021/03/09 03:20:03;;;;;;;55.53;23.70;;;4.00;93.80;;;;;;4975107;28;20125;-81
2021/03/09 03:22:29;;;;;;;58.60;25.23;;;4.00;93.70;;;;;;4982328;28;20117;-82
2021/03/09 03:24:55;;;;;;;60.10;25.63;;;3.90;93.60;;;;;;4984971;28;20418;-82
2021/03/09 03:27:21;;;;;;;65.63;29.85;;;4.00;93.80;;;;;;5012837;28;20030;-82
2021/03/09 03:29:47;;;;;;;38.63;16.02;;;4.00;93.80;;;;;;4985580;28;20041;-82
2021/03/09 03:32:14;;;;;;;55.53;25.70;;;4.00;93.60;;;;;;4985918;28;20396;-82
2021/03/09 03:34:39;;;;;;;53.47;20.85;;;4.00;93.80;;;;;;4986206;28;20044;-82
2021/03/09 03:37:05;;;;;;;51.45;23.20;;;3.90;93.60;;;;;;4996763;28;20041;-80
2021/03/09 03:39:30;;;;;;;60.13;25.70;;;4.00;93.70;;;;;;4986901;28;20053;-81
2021/03/09 03:41:56;;;;;;;56.80;24.33;;;3.90;93.90;;;;;;5004071;28;20087;-82
2021/03/09 03:44:21;;;;;;;53.55;26.35;;;4.00;93.80;;;;;;4984105;28;20034;-82
2021/03/09 03:46:47;;;;;;;52.92;21.98;;;3.90;93.70;;;;;;5016926;28;20041;-82
2021/03/09 03:49:12;;;;;;;56.03;24.35;;;3.90;94.00;;;;;;4980165;28;20056;-82
2021/03/09 03:51:41;;;;;;;56.03;25.30;;;3.90;93.70;;;;;;5003546;28;20120;-82
2021/03/09 03:54:22;;;;;;;58.38;24.83;;;3.90;93.60;;;;;;4996350;28;20034;-82
2021/03/09 03:57:02;;;;;;;64.53;28.02;;;3.90;93.70;;;;;;5019064;28;20041;-81
2021/03/09 03:59:32;;;;;;;57.85;26.00;;;3.80;93.70;;;;;;5015921;28;20149;-76
2021/03/09 04:02:00;;;;;;;59.97;25.80;;;3.80;93.70;;;;;;4989084;28;20030;-76
2021/03/09 04:04:26;;;;;;;52.17;24.73;;;3.80;93.70;;;;;;5001632;28;20038;-76
2021/03/09 04:06:53;;;;;;;22.08;9.82;;;3.80;93.70;;;;;;4996317;28;20091;-76
2021/03/09 04:09:18;;;;;;;63.50;25.45;;;3.90;93.80;;;;;;4977079;28;20018;-76
2021/03/09 04:11:44;;;;;;;21.75;10.63;;;3.80;93.70;;;;;;5000884;28;20324;-76
2021/03/09 04:14:12;;;;;;;46.60;21.00;;;3.80;93.70;;;;;;4991283;28;20451;-77
2021/03/09 04:16:37;;;;;;;50.22;21.40;;;3.90;93.90;;;;;;5004100;28;20025;-77
2021/03/09 04:19:03;;;;;;;64.80;28.95;;;3.90;94.00;;;;;;4979957;28;20045;-77
2021/03/09 04:21:29;;;;;;;67.57;27.17;;;3.80;93.90;;;;;;5003281;28;20030;-77
2021/03/09 04:23:55;;;;;;;64.13;26.38;;;3.70;93.70;;;;;;5001166;28;20789;-77
2021/03/09 04:26:21;;;;;;;45.42;17.85;;;3.80;94.20;;;;;;4981530;28;20064;-77
2021/03/09 04:28:47;;;;;;;45.38;18.85;;;3.80;94.00;;;;;;4997127;28;20464;-76
2021/03/09 04:31:12;;;;;;;55.50;25.50;;;3.80;93.80;;;;;;4997892;28;20513;-76
2021/03/09 04:33:38;;;;;;;32.15;14.68;;;3.80;93.90;;;;;;4985667;28;20065;-77
2021/03/09 04:36:04;;;;;;;30.58;14.25;;;3.80;94.00;;;;;;4989446;28;20029;-76
2021/03/09 04:38:30;;;;;;;26.77;14.52;;;3.70;94.20;;;;;;4985631;28;20140;-76
2021/03/09 04:40:55;;;;;;;39.05;16.52;;;3.80;94.00;;;;;;4981205;28;20036;-77
2021/03/09 04:43:21;;;;;;;35.65;16.48;;;3.70;94.20;;;;;;4994802;28;20058;-76
2021/03/09 04:45:46;;;;;;;69.05;31.50;;;3.80;94.00;;;;;;5010646;28;20120;-76
2021/03/09 04:48:12;;;;;;;26.58;12.23;;;3.70;94.40;;;;;;4968335;28;20038;-77
2021/03/09 04:50:37;;;;;;;36.85;16.30;;;3.80;94.00;;;;;;4984572;28;20025;-76
2021/03/09 04:53:05;;;;;;;81.43;32.35;;;3.70;94.00;;;;;;4972636;28;20030;-77
2021/03/09 04:55:31;;;;;;;58.65;26.75;;;3.70;94.20;;;;;;4991029;28;20045;-77
2021/03/09 04:57:56;;;;;;;47.10;19.48;;;3.70;94.40;;;;;;4982045;28;20061;-76
2021/03/09 05:00:23;;;;;;;54.55;25.48;;;3.70;94.10;;;;;;4981423;28;20490;-77
2021/03/09 05:02:49;;;;;;;70.57;31.88;;;3.70;94.10;;;;;;4984408;28;20449;-76
2021/03/09 05:05:16;;;;;;;49.70;20.40;;;3.70;94.10;;;;;;4997714;28;20116;-78
2021/03/09 05:07:41;;;;;;;38.40;17.63;;;3.70;94.30;;;;;;4981015;28;20025;-77
2021/03/09 05:10:07;;;;;;;62.15;26.23;;;3.70;94.20;;;;;;4976098;28;20033;-77
2021/03/09 05:12:34;;;;;;;72.60;33.38;;;3.70;94.50;;;;;;5001170;28;20036;-77
2021/03/09 05:15:00;;;;;;;70.38;29.17;;;3.70;94.40;;;;;;5006089;28;20045;-77
2021/03/09 05:17:25;;;;;;;37.75;17.00;;;3.60;94.50;;;;;;4993185;28;20512;-78
2021/03/09 05:19:51;;;;;;;47.67;21.45;;;3.60;94.50;;;;;;4982676;28;20048;-77
2021/03/09 05:22:16;;;;;;;66.00;29.00;;;3.70;94.40;;;;;;4993011;28;20120;-77
2021/03/09 05:24:42;;;;;;;42.65;20.63;;;3.60;94.40;;;;;;4995210;28;20038;-77
2021/03/09 05:27:09;;;;;;;30.73;13.32;;;3.70;94.50;;;;;;5008921;28;20167;-77
2021/03/09 05:29:34;;;;;;;69.95;30.08;;;3.60;94.30;;;;;;5015316;28;20076;-77
2021/03/09 05:32:00;;;;;;;20.73;8.98;;;3.70;94.20;;;;;;4990990;28;20097;-77
2021/03/09 05:34:25;;;;;;;64.45;24.90;;;3.70;94.50;;;;;;5016690;28;20037;-77
2021/03/09 05:36:51;;;;;;;65.50;30.88;;;3.70;94.40;;;;;;4994985;28;20033;-78
2021/03/09 05:39:17;;;;;;;48.38;21.83;;;3.70;94.40;;;;;;4992785;28;20513;-77
2021/03/09 05:41:42;;;;;;;64.25;31.65;;;3.70;94.60;;;;;;5003266;28;20040;-78
2021/03/09 05:44:08;;;;;;;62.35;26.95;;;3.70;94.50;;;;;;4981218;28;20033;-78
2021/03/09 05:46:33;;;;;;;64.22;26.23;;;3.60;94.40;;;;;;4984711;28;20037;-78
2021/03/09 05:48:59;;;;;;;32.15;13.20;;;3.70;94.70;;;;;;4976889;28;20081;-78
2021/03/09 05:51:25;;;;;;;64.00;28.88;;;3.70;94.70;;;;;;5011760;28;20543;-78
2021/03/09 05:53:50;;;;;;;63.60;26.52;;;3.70;94.60;;;;;;4644747;28;9999844;-78
2021/03/09 05:56:16;;;;;;;42.22;19.25;;;3.70;94.50;;;;;;4969695;28;20116;-78
2021/03/09 05:58:42;;;;;;;17.17;8.82;;;3.70;94.60;;;;;;4979458;28;20050;-78
2021/03/09 06:01:07;;;;;;;70.20;30.60;;;3.70;94.30;;;;;;4977921;28;20025;-78
2021/03/09 06:03:33;;;;;;;53.58;23.83;;;3.70;94.50;;;;;;4980353;28;20029;-77
2021/03/09 06:05:58;;;;;;;58.13;24.65;;;3.70;94.70;;;;;;4980265;28;20080;-78
2021/03/09 06:08:24;;;;;;;79.05;34.35;;;3.70;94.60;;;;;;4994801;28;20508;-78
2021/03/09 06:10:49;;;;;;;45.55;19.35;;;3.70;94.70;;;;;;4979481;28;20548;-78
2021/03/09 06:13:34;;;;;;;14.15;7.57;;;3.70;94.90;;;;;;4979664;28;20030;-77
2021/03/09 06:15:59;;;;;;;45.67;20.75;;;3.60;94.80;;;;;;4999996;28;20056;-78
2021/03/09 06:18:25;;;;;;;18.75;8.70;;;3.70;94.90;;;;;;4996039;28;20561;-78
2021/03/09 06:21:06;;;;;;;41.08;19.13;;;3.60;94.80;;;;;;4982573;28;20056;-79
2021/03/09 06:23:31;;;;;;;44.50;19.50;;;3.70;95.00;;;;;;4976760;28;20038;-77
2021/03/09 06:25:57;;;;;;;63.28;29.50;;;3.60;95.00;;;;;;4997181;28;20049;-78
2021/03/09 06:29:10;;;;;;;51.08;21.45;;;3.60;95.10;;;;;;4996899;28;20044;-78
2021/03/09 06:31:36;;;;;;;60.95;25.10;;;3.60;95.10;;;;;;4980413;28;20033;-77
2021/03/09 06:34:20;;;;;;;62.42;25.27;;;3.60;95.20;;;;;;4996467;28;20033;-78
2021/03/09 06:37:11;;;;;;;66.47;29.23;;;3.60;95.10;;;;;;5016561;28;20034;-78
2021/03/09 06:39:59;;;;;;;57.55;24.48;;;3.60;95.10;;;;;;5029825;28;20053;-77
2021/03/09 06:42:25;;;;;;;47.63;20.88;;;3.60;95.30;;;;;;4991291;28;20048;-78
2021/03/09 06:44:57;;;;;;;51.40;23.63;;;3.60;95.30;;;;;;5017019;28;20042;-78
2021/03/09 06:47:38;;;;;;;66.40;27.73;;;3.60;95.30;;;;;;5010481;28;20068;-78
2021/03/09 06:50:34;;;;;;;41.80;18.35;;;3.60;95.30;;;;;;5011038;28;20037;-78
2021/03/09 06:53:00;;;;;;;23.20;11.27;;;3.60;95.30;;;;;;5000756;28;20397;-78
2021/03/09 06:55:30;;;;;;;39.17;15.13;;;3.50;95.30;;;;;;5008707;28;20100;-79
2021/03/09 06:58:13;;;;;;;22.45;11.40;;;3.60;95.30;;;;;;5008981;28;20041;-78
2021/03/09 07:00:39;;;;;;;37.28;14.57;;;3.50;95.40;;;;;;4997545;28;20037;-78
2021/03/09 07:03:04;;;;;;;38.75;16.77;;;3.50;95.40;;;;;;5012540;28;20033;-79
2021/03/09 07:05:30;;;;;;;40.90;17.13;;;3.50;95.50;;;;;;5000514;28;22124;-79
2021/03/09 07:07:56;;;;;;;18.75;10.45;;;3.50;95.50;;;;;;4998111;28;20381;-78
2021/03/09 07:10:22;;;;;;;32.90;14.02;;;3.50;95.40;;;;;;4987564;28;20521;-78
2021/03/09 07:12:48;;;;;;;26.70;14.00;;;3.50;95.50;;;;;;4999286;28;20030;-78
2021/03/09 07:15:15;;;;;;;30.92;13.05;;;3.50;95.50;;;;;;4999917;28;20578;-78
2021/03/09 07:17:41;;;;;;;48.45;22.35;;;3.50;95.40;;;;;;4985091;28;20037;-79
2021/03/09 07:20:08;;;;;;;33.67;14.23;;;3.60;95.80;;;;;;4985257;28;20068;-79
2021/03/09 07:22:34;;;;;;;29.30;12.45;;;3.50;95.50;;;;;;5015822;28;20049;-78
2021/03/09 07:25:03;;;;;;;17.48;9.80;;;3.60;95.40;;;;;;4999755;28;20033;-79
2021/03/09 07:27:49;;;;;;;36.25;17.38;;;3.60;95.40;;;;;;5013273;28;20037;-78
2021/03/09 07:30:16;;;;;;;38.17;20.58;;;3.50;95.50;;;;;;5004614;28;20389;-78
2021/03/09 07:32:47;;;;;;;39.75;18.60;;;3.50;95.60;;;;;;4999238;28;20033;-78
2021/03/09 07:35:13;;;;;;;59.03;25.88;;;3.50;95.60;;;;;;5008156;28;20477;-78
2021/03/09 07:37:40;;;;;;;30.00;10.50;;;3.50;95.60;;;;;;5002112;28;20029;-78
2021/03/09 07:40:08;;;;;;;54.08;24.38;;;3.50;95.60;;;;;;4975990;28;20022;-78
2021/03/09 07:42:33;;;;;;;52.22;23.42;;;3.60;95.40;;;;;;5002216;28;20044;-78
2021/03/09 07:44:59;;;;;;;28.10;12.95;;;3.60;95.50;;;;;;4992668;28;20030;-78
2021/03/09 07:47:24;;;;;;;52.53;24.65;;;3.50;95.60;;;;;;5012222;28;20033;-78
2021/03/09 07:49:50;;;;;;;44.65;20.55;;;3.50;95.70;;;;;;4987868;28;20033;-79
2021/03/09 07:52:20;;;;;;;44.60;20.90;;;3.50;95.60;;;;;;4993662;28;20029;-78
2021/03/09 07:55:03;;;;;;;34.72;14.70;;;3.50;95.50;;;;;;4982721;28;20026;-79
2021/03/09 07:57:32;;;;;;;41.47;20.30;;;3.50;95.60;;;;;;5018172;28;20524;-79
2021/03/09 08:00:08;;;;;;;48.63;21.50;;;3.50;95.70;;;;;;4986816;28;20040;-78
2021/03/09 08:02:54;;;;;;;49.80;23.45;;;3.50;95.70;;;;;;5020036;28;20131;-78
2021/03/09 08:05:21;;;;;;;44.75;20.13;;;3.50;95.80;;;;;;5013712;28;20061;-78
2021/03/09 08:08:03;;;;;;;46.80;22.15;;;3.50;95.80;;;;;;4995630;28;20384;-78
2021/03/09 08:10:29;;;;;;;28.95;13.00;;;3.50;95.90;;;;;;5004717;28;20026;-78
2021/03/09 08:12:55;;;;;;;34.33;9.57;;;3.50;95.80;;;;;;5012914;28;20037;-78
2021/03/09 08:15:22;;;;;;;29.15;12.82;;;3.50;95.80;;;;;;5009953;28;20030;-78
2021/03/09 08:17:47;;;;;;;38.92;18.73;;;3.50;95.80;;;;;;4980998;28;20046;-77
2021/03/09 08:20:58;;;;;;;32.55;15.18;;;3.50;95.80;;;;;;4980538;28;20041;-78
2021/03/09 08:23:35;;;;;;;51.33;25.00;;;3.50;96.30;;;;;;4997866;28;20675;-78
2021/03/09 08:26:25;;;;;;;44.00;19.80;;;3.50;96.10;;;;;;5015307;28;20045;-79
2021/03/09 08:28:50;;;;;;;33.55;13.68;;;3.50;96.00;;;;;;5017483;28;20037;-78
2021/03/09 08:31:19;;;;;;;36.33;16.38;;;3.50;96.10;;;;;;4979265;28;20044;-78
2021/03/09 08:33:45;;;;;;;31.48;13.57;;;3.60;96.10;;;;;;5013593;28;20030;-78
2021/03/09 08:36:20;;;;;;;44.13;22.73;;;3.60;96.00;;;;;;4983769;28;20124;-79
2021/03/09 08:39:04;;;;;;;18.40;7.82;;;3.60;96.00;;;;;;5012001;28;20204;-78
2021/03/09 08:41:39;;;;;;;26.10;12.70;;;3.60;96.10;;;;;;5017215;28;20089;-78
2021/03/09 08:44:14;;;;;;;47.67;19.70;;;3.60;96.20;;;;;;5008801;28;20565;-78
2021/03/09 08:46:52;;;;;;;27.52;12.10;;;3.70;96.20;;;;;;5029583;28;20394;-79
2021/03/09 08:49:36;;;;;;;47.05;21.95;;;3.70;96.00;;;;;;5011880;28;20196;-78
2021/03/09 08:52:17;;;;;;;31.10;14.00;;;3.70;96.40;;;;;;5017724;28;20030;-78
2021/03/09 08:54:50;;;;;;;38.50;18.80;;;3.70;96.10;;;;;;4995340;28;20405;-77
2021/03/09 08:57:18;;;;;;;36.58;15.20;;;3.70;96.10;;;;;;4997074;28;20038;-78
2021/03/09 08:59:47;;;;;;;25.17;12.20;;;3.60;96.10;;;;;;5012781;28;20034;-78
2021/03/09 09:02:17;;;;;;;41.17;18.23;;;3.70;96.10;;;;;;4984204;28;20037;-77
2021/03/09 09:04:45;;;;;;;37.22;16.73;;;3.70;96.00;;;;;;5007310;28;20520;-78
2021/03/09 09:07:39;;;;;;;12.98;6.20;;;3.70;96.10;;;;;;5004173;28;20033;-77
2021/03/09 09:10:07;;;;;;;41.08;19.80;;;3.70;96.10;;;;;;5001153;28;20080;-76
2021/03/09 09:12:39;;;;;;;25.38;12.23;;;3.70;96.10;;;;;;5004918;28;20030;-78
2021/03/09 09:15:11;;;;;;;21.60;9.68;;;3.70;96.20;;;;;;5000041;28;20168;-78
2021/03/09 09:17:38;;;;;;;13.95;8.18;;;3.70;96.10;;;;;;5017452;28;20030;-78
2021/03/09 09:20:08;;;;;;;25.52;12.27;;;3.70;96.20;;;;;;5005458;28;20127;-78
2021/03/09 09:22:34;;;;;;;25.45;11.57;;;3.70;96.20;;;;;;4990865;28;20397;-78
2021/03/09 09:25:03;;;;;;;24.70;13.80;;;3.70;96.20;;;;;;5001056;28;20037;-78
2021/03/09 09:27:37;;;;;;;18.02;8.35;;;3.80;96.30;;;;;;5002483;28;20029;-77
2021/03/09 09:30:03;;;;;;;38.95;17.40;;;3.80;96.20;;;;;;4990556;28;20128;-77
2021/03/09 09:32:42;;;;;;;32.40;14.85;;;3.80;96.30;;;;;;5001745;28;20415;-77
2021/03/09 09:35:08;;;;;;;39.40;18.20;;;3.80;96.20;;;;;;4992854;28;20434;-78
2021/03/09 09:37:33;;;;;;;31.58;12.80;;;3.90;96.20;;;;;;4997402;28;20362;-78
2021/03/09 09:40:03;;;;;;;22.33;11.82;;;3.90;96.10;;;;;;4992400;28;20116;-78
2021/03/09 09:42:28;;;;;;;34.05;18.98;;;3.90;96.00;;;;;;5013330;28;20081;-77
2021/03/09 09:44:54;;;;;;;26.00;13.43;;;3.90;96.00;;;;;;4978709;28;20124;-78
2021/03/09 09:47:19;;;;;;;19.95;10.48;;;3.90;95.90;;;;;;4980531;28;20088;-78
2021/03/09 09:49:45;;;;;;;31.25;15.50;;;3.90;95.80;;;;;;4998636;28;20443;-78
2021/03/09 09:52:15;;;;;;;32.80;16.33;;;4.00;95.80;;;;;;4993251;28;20026;-78
2021/03/09 09:54:51;;;;;;;14.48;6.97;;;4.00;96.10;;;;;;5020505;28;20033;-78
2021/03/09 09:57:16;;;;;;;22.08;9.95;;;4.00;96.00;;;;;;4992951;28;20033;-79
2021/03/09 09:59:42;;;;;;;33.03;15.73;;;4.00;96.00;;;;;;4998286;28;20102;-80
2021/03/09 10:02:27;;;;;;;34.35;18.55;;;4.00;96.10;;;;;;4980208;28;20033;-79
2021/03/09 10:04:52;;;;;;;31.88;17.10;;;4.00;96.40;;;;;;5014935;28;20099;-80
2021/03/09 10:07:19;;;;;;;21.60;12.85;;;4.20;96.00;;;;;;5001809;28;20481;-80
2021/03/09 10:10:07;;;;;;;21.20;11.68;;;4.10;95.90;;;;;;4997367;28;20033;-80
2021/03/09 10:12:34;;;;;;;27.77;12.35;;;4.10;96.10;;;;;;4980767;28;20462;-80
2021/03/09 10:15:00;;;;;;;32.60;17.88;;;4.00;96.10;;;;;;4981671;28;20041;-79
2021/03/09 10:17:25;;;;;;;23.17;10.88;;;4.10;96.10;;;;;;5005233;28;20034;-79
2021/03/09 10:19:52;;;;;;;21.08;10.63;;;4.00;96.00;;;;;;4999985;28;20038;-78
2021/03/09 10:22:18;;;;;;;32.65;15.70;;;4.10;96.20;;;;;;4976251;28;20042;-79
2021/03/09 10:24:44;;;;;;;20.38;10.50;;;4.10;96.20;;;;;;5003999;28;20065;-78
2021/03/09 10:27:15;;;;;;;21.65;10.23;;;4.10;96.10;;;;;;4997764;28;20057;-79
2021/03/09 10:29:41;;;;;;;16.58;8.13;;;4.10;96.10;;;;;;5002400;28;20034;-79
2021/03/09 10:32:14;;;;;;;18.60;8.88;;;4.10;96.20;;;;;;4993098;28;20048;-79
2021/03/09 10:34:52;;;;;;;33.25;17.95;;;4.10;96.50;;;;;;4995323;28;20068;-79
2021/03/09 10:37:33;;;;;;;28.08;15.77;;;4.20;96.30;;;;;;4994476;28;20026;-79
2021/03/09 10:40:10;;;;;;;31.60;15.77;;;4.20;96.30;;;;;;5019957;28;20493;-78
2021/03/09 10:42:46;;;;;;;25.55;12.88;;;4.30;96.10;;;;;;4992364;28;20041;-79
2021/03/09 10:45:18;;;;;;;;;;;4.30;96.20;;;;;;4974247;28;20091;-79
2021/03/09 10:47:47;;;;;;;34.92;14.88;;;4.40;96.20;;;;;;5028687;28;19914;-79
2021/03/09 10:50:13;;;;;;;19.40;9.73;;;4.50;95.80;;;;;;4996907;28;20025;-79
2021/03/09 10:52:39;;;;;;;17.17;9.30;;;4.50;96.10;;;;;;5021338;28;20056;-79
2021/03/09 10:55:05;;;;;;;27.45;12.57;;;4.40;96.00;;;;;;4988301;28;20405;-79
2021/03/09 10:57:30;;;;;;;32.80;19.27;;;4.50;95.90;;;;;;5009770;28;20427;-79
2021/03/09 10:59:56;;;;;;;32.03;16.98;;;4.50;96.10;;;;;;4999389;28;20120;-79
2021/03/09 11:02:22;;;;;;;32.63;15.57;;;4.40;95.90;;;;;;5010801;28;20034;-78
2021/03/09 11:04:47;;;;;;;35.70;17.10;;;4.40;96.00;;;;;;5000786;28;20057;-79
2021/03/09 11:07:13;;;;;;;13.38;6.95;;;4.40;96.10;;;;;;4983430;28;20037;-78
2021/03/09 11:09:38;;;;;;;17.25;9.23;;;4.40;96.10;;;;;;4985703;28;20389;-79
2021/03/09 11:12:04;;;;;;;35.13;18.10;;;4.40;96.10;;;;;;4978335;28;20037;-79
2021/03/09 11:14:30;;;;;;;32.78;17.95;;;4.40;96.20;;;;;;5013372;28;20084;-79
2021/03/09 11:16:55;;;;;;;42.55;21.02;;;4.50;96.20;;;;;;5001244;28;20038;-78
2021/03/09 11:19:21;;;;;;;31.95;15.35;;;4.50;96.20;;;;;;4976669;28;20521;-78
2021/03/09 11:21:46;;;;;;;42.75;19.30;;;4.40;96.10;;;;;;5002252;28;20488;-79
2021/03/09 11:24:12;;;;;;;33.88;18.20;;;4.50;96.20;;;;;;4975465;28;20037;-78
2021/03/09 11:26:39;;;;;;;26.05;14.38;;;4.50;96.20;;;;;;4992283;28;20089;-78
2021/03/09 11:29:05;;;;;;;35.92;20.23;;;4.50;96.00;;;;;;4993158;28;20049;-78
2021/03/09 11:31:31;;;;;;;31.15;15.13;;;4.60;96.20;;;;;;4998942;28;20541;-79
2021/03/09 11:33:56;;;;;;;38.95;17.77;;;4.60;95.80;;;;;;4999678;28;20041;-79
2021/03/09 11:36:22;;;;;;;28.20;12.38;;;4.60;95.90;;;;;;4999955;28;20036;-79
2021/03/09 11:38:48;;;;;;;39.90;20.63;;;4.70;95.70;;;;;;4996152;28;20038;-79
2021/03/09 11:41:15;;;;;;;38.13;18.77;;;4.60;95.90;;;;;;4996267;28;20057;-79
2021/03/09 11:43:41;;;;;;;37.72;18.02;;;4.60;96.10;;;;;;4999528;28;20088;-79
2021/03/09 11:46:06;;;;;;;46.28;22.23;;;4.60;96.20;;;;;;4978552;28;20038;-79
2021/03/09 11:48:32;;;;;;;40.38;20.83;;;4.70;96.10;;;;;;4989014;28;20124;-79
2021/03/09 11:50:57;;;;;;;31.55;13.65;;;4.70;96.10;;;;;;4993507;28;20061;-79
2021/03/09 11:53:23;;;;;;;43.70;20.58;;;4.70;96.40;;;;;;4995511;28;20030;-79
2021/03/09 11:55:49;;;;;;;37.05;18.45;;;4.80;96.40;;;;;;4977646;28;20524;-79
2021/03/09 11:58:14;;;;;;;36.50;17.83;;;4.80;96.30;;;;;;4990538;28;20050;-79
2021/03/09 12:00:40;;;;;;;24.67;11.82;;;4.80;96.20;;;;;;4980728;28;20033;-80
2021/03/09 12:03:06;;;;;;;43.00;20.10;;;4.90;96.20;;;;;;4975492;28;20049;-79
2021/03/09 12:05:31;;;;;;;30.10;16.30;;;4.90;96.10;;;;;;4990265;28;20105;-79
2021/03/09 12:07:58;;;;;;;40.35;21.48;;;5.00;95.80;;;;;;4990776;28;20050;-80
2021/03/09 12:10:23;;;;;;;45.42;22.23;;;5.00;95.70;;;;;;4312725;28;10000324;-79
2021/03/09 12:12:49;;;;;;;43.78;22.05;;;5.00;95.70;;;;;;4643324;28;10000712;-80
2021/03/09 12:15:15;;;;;;;42.42;20.42;;;4.90;95.90;;;;;;4971861;28;20437;-79
2021/03/09 12:17:40;;;;;;;40.22;18.30;;;4.90;96.00;;;;;;5005118;28;20034;-80
2021/03/09 12:20:06;;;;;;;41.40;21.83;;;4.90;96.10;;;;;;4994341;28;20034;-80
2021/03/09 12:22:32;;;;;;;37.67;18.20;;;4.90;96.10;;;;;;4986882;28;20120;-80
2021/03/09 12:24:57;;;;;;;40.53;17.75;;;5.00;96.10;;;;;;4975127;28;20558;-79
2021/03/09 12:27:24;;;;;;;52.53;24.20;;;4.90;96.30;;;;;;4991451;28;20037;-79
2021/03/09 12:29:49;;;;;;;37.00;17.25;;;5.00;96.10;;;;;;4989639;28;20038;-79
2021/03/09 12:32:15;;;;;;;60.53;28.60;;;5.00;96.00;;;;;;4971691;28;20057;-79
2021/03/09 12:34:40;;;;;;;;;;;5.00;96.20;;;;;;4629803;28;9999891;-79
2021/03/09 12:37:06;;;;;;;54.20;23.30;;;5.00;96.30;;;;;;5005726;28;19913;-79
2021/03/09 12:39:32;;;;;;;53.38;25.33;;;5.00;96.40;;;;;;4984723;28;20035;-79
2021/03/09 12:41:58;;;;;;;30.80;14.40;;;5.00;96.30;;;;;;4991516;28;20033;-78
2021/03/09 12:44:23;;;;;;;54.53;26.73;;;5.10;96.40;;;;;;4993877;28;20438;-80